Time;durP1;ratioP1;P1;durP2;ratioP2;P2;SDS_P1;SDS_P2;PMS_P1;PMS_P2;Temp;Humidity;BMP_temperature;BMP_pressure;BME280_temperature;BME280_humidity;BME280_pressure;Samples;Min_cycle;Max_cycle;Signal;HPM_P1;HPM_P2
2022/03/12 00:01:35;;;;;;;36.10;19.58;;;;;;;5.70;36.91;95971.03;5032263;28;20221;-61
2022/03/12 00:04:06;;;;;;;35.90;19.42;;;;;;;5.84;37.03;95972.66;5031846;28;20215;-63
2022/03/12 00:06:34;;;;;;;29.23;18.42;;;;;;;5.76;36.69;95983.25;5031795;28;20189;-61
2022/03/12 00:09:02;;;;;;;28.58;17.65;;;;;;;5.83;36.66;95971.91;5031429;28;20189;-64
2022/03/12 00:11:34;;;;;;;29.42;17.05;;;;;;;5.68;36.83;95984.25;5031778;28;20193;-62
2022/03/12 00:14:04;;;;;;;26.45;15.98;;;;;;;5.42;37.46;95984.19;5031721;28;20212;-63
2022/03/12 00:16:32;;;;;;;29.15;16.02;;;;;;;5.44;37.52;95984.03;5030685;28;20288;-63
2022/03/12 00:19:04;;;;;;;27.02;16.50;;;;;;;5.55;37.48;95983.41;5031368;28;20312;-63
2022/03/12 00:21:35;;;;;;;29.00;17.92;;;;;;;5.31;38.07;95982.16;5031806;28;20238;-61
2022/03/12 00:24:05;;;;;;;28.20;17.05;;;;;;;5.65;37.51;95989.84;5031174;28;20197;-65
2022/03/12 00:26:33;;;;;;;34.03;18.27;;;;;;;5.54;38.21;95993.03;5031334;28;20655;-60
2022/03/12 00:29:01;;;;;;;30.13;18.60;;;;;;;5.57;38.20;95991.81;5030887;28;20193;-61
2022/03/12 00:31:28;;;;;;;31.75;18.48;;;;;;;5.36;39.05;95987.59;5030266;28;20692;-63
2022/03/12 00:33:56;;;;;;;29.10;18.13;;;;;;;5.65;38.40;95991.66;5030978;28;20201;-63
2022/03/12 00:36:23;;;;;;;26.35;16.08;;;;;;;5.28;39.63;95992.16;5031588;28;20197;-60
2022/03/12 00:38:50;;;;;;;24.50;16.08;;;;;;;5.38;39.93;95988.19;5031493;28;20228;-63
2022/03/12 00:41:18;;;;;;;24.20;15.68;;;;;;;5.52;39.34;95983.81;5031322;28;20653;-60
2022/03/12 00:43:45;;;;;;;28.30;16.33;;;;;;;5.39;39.81;95986.38;5030627;28;20289;-64
2022/03/12 00:46:12;;;;;;;23.17;15.20;;;;;;;5.25;40.04;95987.34;5031377;28;20177;-60
2022/03/12 00:48:40;;;;;;;24.63;15.10;;;;;;;5.13;40.59;95987.91;5031380;28;20251;-63
2022/03/12 00:51:09;;;;;;;26.85;15.10;;;;;;;5.27;40.14;95982.75;5030747;28;20189;-63
2022/03/12 00:53:37;;;;;;;23.73;15.40;;;;;;;5.04;41.16;95983.88;5031300;28;20189;-65
2022/03/12 00:56:05;;;;;;;23.67;15.38;;;;;;;5.32;40.46;95981.19;5030995;28;20190;-63
2022/03/12 00:58:34;;;;;;;23.05;14.60;;;;;;;5.08;41.21;95985.09;5030784;28;20197;-63
2022/03/12 01:01:02;;;;;;;21.50;14.07;;;;;;;5.07;41.52;95986.09;5030277;28;20247;-62
2022/03/12 01:03:30;;;;;;;20.45;12.93;;;;;;;5.04;41.36;95991.69;5030505;28;20189;-64
2022/03/12 01:06:02;;;;;;;20.75;12.65;;;;;;;5.09;41.43;95981.50;5030387;28;20229;-62
2022/03/12 01:08:30;;;;;;;19.60;12.18;;;;;;;5.37;40.88;95983.19;5030835;28;20665;-62
2022/03/12 01:11:00;;;;;;;17.33;11.40;;;;;;;5.29;41.04;95985.97;5030228;28;20224;-61
2022/03/12 01:13:29;;;;;;;20.38;11.90;;;;;;;5.46;40.75;95997.59;5030762;28;20292;-61
2022/03/12 01:15:57;;;;;;;19.38;12.18;;;;;;;5.44;40.57;95986.63;5030479;28;20185;-62
2022/03/12 01:18:25;;;;;;;17.52;11.40;;;;;;;5.60;40.72;95983.63;5031008;28;20304;-61
2022/03/12 01:20:53;;;;;;;16.77;9.90;;;;;;;5.41;40.78;95992.19;5030278;28;20208;-61
2022/03/12 01:23:24;;;;;;;14.57;9.60;;;;;;;5.18;41.08;95990.72;5030595;28;20221;-62
2022/03/12 01:25:52;;;;;;;15.98;9.65;;;;;;;5.19;41.35;95999.31;5030168;28;20714;-61
2022/03/12 01:28:20;;;;;;;15.13;9.57;;;;;;;5.31;40.91;95999.56;5030555;28;20570;-63
2022/03/12 01:30:47;;;;;;;15.02;9.68;;;;;;;5.22;41.22;95985.16;5028022;28;20186;-62
2022/03/12 01:33:15;;;;;;;13.85;9.63;;;;;;;4.90;41.71;95995.22;5030682;28;20196;-62
2022/03/12 01:35:45;;;;;;;15.07;9.52;;;;;;;4.93;41.48;95974.06;5030083;28;20286;-61
2022/03/12 01:38:12;;;;;;;15.48;9.55;;;;;;;4.94;41.58;95993.84;5030092;28;20651;-62
2022/03/12 01:40:39;;;;;;;16.38;10.30;;;;;;;5.25;41.03;95992.56;5029651;28;20190;-64
2022/03/12 01:43:06;;;;;;;14.18;9.68;;;;;;;4.99;41.31;95988.88;5029281;28;20216;-62
2022/03/12 01:45:36;;;;;;;13.80;8.77;;;;;;;3.89;43.04;95988.97;5029985;28;20208;-61
2022/03/12 01:48:06;;;;;;;8.80;4.50;;;;;;;2.94;45.68;95991.03;5030116;28;20178;-61
2022/03/12 01:50:35;;;;;;;14.48;8.60;;;;;;;2.51;46.93;95991.91;5029621;28;20559;-61
2022/03/12 01:53:06;;;;;;;12.15;6.68;;;;;;;2.43;47.16;95984.22;5029587;28;20197;-61
2022/03/12 01:55:34;;;;;;;12.90;7.60;;;;;;;2.43;46.56;95984.22;5029150;28;20201;-61
2022/03/12 01:58:03;;;;;;;13.18;6.38;;;;;;;2.47;46.79;95985.47;5030033;28;20632;-62
2022/03/12 02:00:45;;;;;;;8.73;4.68;;;;;;;2.35;46.18;95980.91;5029435;28;20635;-61
2022/03/12 02:03:15;;;;;;;11.38;6.78;;;;;;;2.46;46.38;95983.06;5028363;28;20225;-62
2022/03/12 02:05:43;;;;;;;11.38;6.53;;;;;;;2.38;46.64;95980.56;5029456;28;20288;-60
2022/03/12 02:08:14;;;;;;;13.43;6.88;;;;;;;2.40;46.65;95989.75;5029727;28;20560;-63
2022/03/12 02:10:42;;;;;;;12.55;7.60;;;;;;;2.42;46.64;95980.03;5029275;28;20208;-62
2022/03/12 02:13:11;;;;;;;13.65;7.70;;;;;;;2.47;46.64;95984.66;5029282;28;20193;-61
2022/03/12 02:15:38;;;;;;;15.75;7.93;;;;;;;2.30;46.74;95999.53;5029116;28;20255;-62
2022/03/12 02:18:06;;;;;;;12.98;6.05;;;;;;;1.73;47.82;95990.72;5029858;28;20186;-61
2022/03/12 02:20:38;;;;;;;12.95;6.93;;;;;;;1.67;48.03;95996.56;5029421;28;20588;-62
2022/03/12 02:23:09;;;;;;;14.60;7.82;;;;;;;2.61;46.30;96000.19;5029552;28;20244;-61
2022/03/12 02:25:37;;;;;;;16.55;8.80;;;;;;;3.24;44.74;95989.19;5029061;28;20204;-61
2022/03/12 02:28:15;;;;;;;14.95;8.48;;;;;;;3.77;44.16;96003.44;5029385;28;20236;-61
2022/03/12 02:30:51;;;;;;;13.20;8.88;;;;;;;3.86;43.74;95990.19;5028979;28;20197;-62
2022/03/12 02:33:27;;;;;;;16.17;9.15;;;;;;;4.09;42.80;95995.13;5028745;28;20664;-63
2022/03/12 02:35:56;;;;;;;14.05;8.95;;;;;;;4.19;42.24;95998.22;5028590;28;20197;-63
2022/03/12 02:38:27;;;;;;;19.08;10.25;;;;;;;4.37;42.11;95995.94;5029458;28;20197;-63
2022/03/12 02:40:56;;;;;;;20.17;12.73;;;;;;;4.34;42.05;95993.72;5028604;28;20199;-63
2022/03/12 02:43:26;;;;;;;24.40;13.82;;;;;;;4.37;42.07;95984.75;5029447;28;20244;-60
2022/03/12 02:45:57;;;;;;;23.95;13.55;;;;;;;4.36;42.35;96002.09;5030287;28;20201;-63
2022/03/12 02:48:25;;;;;;;25.45;12.93;;;;;;;4.82;41.15;96002.34;5029737;28;20259;-63
2022/03/12 02:50:53;;;;;;;21.27;12.23;;;;;;;4.50;41.88;96006.41;5028487;28;20227;-63
2022/03/12 02:53:20;;;;;;;20.75;12.77;;;;;;;4.61;41.26;96005.06;5028979;28;20236;-63
2022/03/12 02:55:47;;;;;;;25.02;13.43;;;;;;;4.45;41.26;96005.38;5028721;28;20706;-64
2022/03/12 02:58:16;;;;;;;21.48;12.63;;;;;;;4.40;41.59;96013.72;5029377;28;20189;-65
2022/03/12 03:00:43;;;;;;;20.67;13.20;;;;;;;4.33;41.70;96015.47;5009886;28;20285;-61
2022/03/12 03:03:13;;;;;;;22.80;13.50;;;;;;;4.36;41.53;96009.09;5009576;28;20716;-62
2022/03/12 03:05:46;;;;;;;22.85;12.93;;;;;;;4.20;41.75;96012.78;5008882;28;20174;-62
2022/03/12 03:08:19;;;;;;;20.83;13.10;;;;;;;4.31;41.93;96019.22;5009813;28;20242;-62
2022/03/12 03:10:50;;;;;;;24.17;13.50;;;;;;;4.28;41.59;96017.81;5008759;28;20256;-62
2022/03/12 03:13:17;;;;;;;20.40;13.38;;;;;;;4.10;42.39;96017.50;5009219;28;20220;-62
2022/03/12 03:15:46;;;;;;;26.13;15.13;;;;;;;3.86;42.78;96028.25;5009042;28;20192;-61
2022/03/12 03:18:15;;;;;;;25.42;15.20;;;;;;;3.85;43.26;96029.25;5009270;28;20580;-63
2022/03/12 03:20:43;;;;;;;26.75;16.10;;;;;;;4.14;42.54;96034.28;5008457;28;20228;-63
2022/03/12 03:23:12;;;;;;;27.25;16.67;;;;;;;4.33;42.18;96028.44;5008743;28;20251;-63
2022/03/12 03:25:45;;;;;;;30.27;17.15;;;;;;;4.22;42.24;96036.72;5008499;28;20655;-64
2022/03/12 03:28:31;;;;;;;28.77;17.02;;;;;;;4.21;41.66;96039.53;5008970;28;20201;-62
2022/03/12 03:30:58;;;;;;;30.50;17.40;;;;;;;4.14;42.00;96026.50;5008349;28;20217;-63
2022/03/12 03:33:27;;;;;;;30.35;17.98;;;;;;;4.31;41.74;96030.41;5008874;28;20269;-64
2022/03/12 03:35:54;;;;;;;28.58;17.55;;;;;;;4.18;41.73;96025.13;5008392;28;20214;-62
2022/03/12 03:38:21;;;;;;;28.38;17.05;;;;;;;3.99;42.20;96023.19;5009097;28;20198;-62
2022/03/12 03:40:49;;;;;;;30.10;17.58;;;;;;;3.71;42.68;96027.50;5008433;28;20210;-61
2022/03/12 03:43:19;;;;;;;29.75;18.02;;;;;;;3.56;43.10;96029.38;5009001;28;20228;-61
2022/03/12 03:45:49;;;;;;;31.10;18.77;;;;;;;3.63;43.34;96028.44;5008537;28;20218;-62
2022/03/12 03:48:20;;;;;;;32.55;19.02;;;;;;;3.61;43.42;96033.00;5008520;28;20364;-63
2022/03/12 03:50:48;;;;;;;29.58;18.52;;;;;;;4.35;41.94;96036.03;5008436;28;20579;-61
2022/03/12 03:53:18;;;;;;;32.92;19.13;;;;;;;4.65;41.19;96038.22;5009254;28;20202;-61
2022/03/12 03:55:45;;;;;;;32.13;18.60;;;;;;;3.86;42.57;96036.03;5008657;28;20205;-63
2022/03/12 03:58:14;;;;;;;23.90;14.35;;;;;;;4.22;42.31;96030.72;5008903;28;20206;-62
2022/03/12 04:01:02;;;;;;;30.45;17.27;;;;;;;4.69;41.14;96036.84;5028009;28;20228;-65
2022/03/12 04:03:33;;;;;;;36.70;17.45;;;;;;;4.83;40.98;96035.94;5028199;28;20232;-62
2022/03/12 04:06:02;;;;;;;32.05;17.85;;;;;;;4.78;40.81;96034.91;5028433;28;20205;-62
2022/03/12 04:08:31;;;;;;;29.33;17.02;;;;;;;4.62;40.80;96038.59;5032322;28;20287;-62
2022/03/12 04:11:01;;;;;;;30.85;17.60;;;;;;;4.54;40.69;96045.75;5031471;28;20288;-60
2022/03/12 04:13:28;;;;;;;26.98;16.25;;;;;;;4.77;40.11;96044.50;5032041;28;20724;-60
2022/03/12 04:15:58;;;;;;;27.75;16.55;;;;;;;4.84;40.10;96042.75;5031462;28;20204;-61
2022/03/12 04:18:26;;;;;;;23.05;13.68;;;;;;;4.64;40.41;96054.81;5031914;28;20197;-61
2022/03/12 04:20:53;;;;;;;21.45;13.18;;;;;;;4.72;39.95;96052.06;5030791;28;20243;-63
2022/03/12 04:23:21;;;;;;;20.27;12.35;;;;;;;4.63;39.71;96045.41;5032100;28;20279;-65
2022/03/12 04:25:51;;;;;;;16.48;10.85;;;;;;;4.60;39.70;96050.19;5031275;28;20263;-62
2022/03/12 04:28:20;;;;;;;16.88;11.13;;;;;;;4.28;40.16;96048.97;5032052;28;20193;-61
2022/03/12 04:30:47;;;;;;;16.15;10.25;;;;;;;4.60;39.85;96056.16;5031347;28;20291;-62
2022/03/12 04:33:15;;;;;;;15.70;10.60;;;;;;;4.05;40.26;96056.94;5031241;28;20181;-62
2022/03/12 04:35:42;;;;;;;14.68;10.00;;;;;;;4.05;40.82;96066.53;5031106;28;20871;-63
2022/03/12 04:38:10;;;;;;;16.52;10.45;;;;;;;4.02;40.79;96072.88;5031762;28;20247;-64
2022/03/12 04:40:41;;;;;;;16.75;10.80;;;;;;;4.11;40.75;96073.56;5030682;28;20715;-60
2022/03/12 04:43:11;;;;;;;18.38;11.80;;;;;;;3.89;41.29;96077.13;5031435;28;20221;-63
2022/03/12 04:45:45;;;;;;;19.40;12.52;;;;;;;3.88;41.03;96080.72;5030336;28;20597;-62
2022/03/12 04:48:19;;;;;;;41.65;23.98;;;;;;;4.08;40.90;96077.34;5030850;28;20197;-64
2022/03/12 04:50:46;;;;;;;43.88;23.80;;;;;;;4.06;40.72;96088.88;5030732;28;20562;-62
2022/03/12 04:53:13;;;;;;;44.10;23.50;;;;;;;3.40;41.78;96089.19;5031492;28;20185;-62
2022/03/12 04:55:40;;;;;;;44.20;23.80;;;;;;;3.40;41.67;96055.50;5030618;28;20897;-61
2022/03/12 04:58:09;;;;;;;44.42;24.05;;;;;;;3.66;41.28;96092.06;5031244;28;20193;-62
2022/03/12 05:00:40;;;;;;;40.70;23.35;;;;;;;3.44;41.77;96093.00;5029982;28;20241;-62
2022/03/12 05:03:13;;;;;;;40.33;21.50;;;;;;;3.43;41.51;96092.19;5031138;28;20762;-64
2022/03/12 05:05:42;;;;;;;34.63;19.20;;;;;;;3.63;40.65;96092.44;5030468;28;20208;-62
2022/03/12 05:08:11;;;;;;;37.15;17.75;;;;;;;3.41;41.46;96093.38;5031013;28;20201;-62
2022/03/12 05:10:38;;;;;;;30.70;17.90;;;;;;;3.68;40.49;96100.47;5030202;28;20193;-63
2022/03/12 05:13:05;;;;;;;28.60;16.45;;;;;;;3.65;40.61;96106.03;5030324;28;20247;-63
2022/03/12 05:15:40;;;;;;;27.17;16.27;;;;;;;3.62;40.56;96108.97;5008501;28;20286;-61
2022/03/12 05:18:11;;;;;;;27.38;15.90;;;;;;;3.62;41.06;96106.38;5011469;28;20228;-61
2022/03/12 05:20:43;;;;;;;27.05;15.57;;;;;;;3.69;40.19;96112.44;5013937;28;20221;-62
2022/03/12 05:23:11;;;;;;;24.73;14.73;;;;;;;3.72;40.47;96117.28;5024342;28;20328;-62
2022/03/12 05:25:46;;;;;;;25.50;13.80;;;;;;;3.76;40.35;96103.75;5010371;28;20213;-63
2022/03/12 05:28:23;;;;;;;25.35;14.20;;;;;;;3.57;40.67;96113.91;5010998;28;20197;-65
2022/03/12 05:30:58;;;;;;;27.52;14.60;;;;;;;3.75;40.75;96119.47;5009994;28;20200;-64
2022/03/12 05:33:27;;;;;;;26.02;14.40;;;;;;;3.77;40.71;96120.91;5010893;28;20193;-64
2022/03/12 05:35:54;;;;;;;23.23;13.63;;;;;;;3.58;40.93;96124.06;5009904;28;20653;-63
2022/03/12 05:38:23;;;;;;;22.75;13.27;;;;;;;3.80;40.67;96141.28;5011013;28;20221;-63
2022/03/12 05:40:51;;;;;;;27.00;15.68;;;;;;;3.80;43.78;96141.28;5009539;28;20272;-64
2022/03/12 05:43:18;;;;;;;28.45;14.35;;;;;;;4.14;43.21;96143.22;5010526;28;20976;-62
2022/03/12 05:45:48;;;;;;;26.63;14.25;;;;;;;4.29;41.42;96149.13;5009741;28;20300;-65
2022/03/12 05:48:16;;;;;;;50.45;27.67;;;;;;;4.02;40.94;96160.25;5010547;28;20198;-62
2022/03/12 05:50:49;;;;;;;61.30;30.75;;;;;;;4.10;41.16;96147.19;5010138;28;20701;-65
2022/03/12 05:53:19;;;;;;;56.40;30.40;;;;;;;4.18;40.90;96154.81;5010533;28;20218;-64
2022/03/12 05:55:48;;;;;;;64.03;33.38;;;;;;;3.93;41.27;96148.41;5024704;28;20193;-63
2022/03/12 05:58:17;;;;;;;43.30;24.50;;;;;;;3.95;40.49;96159.38;5028916;28;20263;-61
2022/03/12 06:00:48;;;;;;;39.83;21.80;;;;;;;3.53;42.38;96154.94;5028175;28;20528;-62
2022/03/12 06:03:15;;;;;;;34.97;19.45;;;;;;;3.99;41.02;96160.63;5028800;28;20585;-64
2022/03/12 06:05:43;;;;;;;27.50;16.25;;;;;;;3.54;42.05;96160.91;5028506;28;20193;-64
2022/03/12 06:08:22;;;;;;;30.08;16.42;;;;;;;4.09;41.43;96150.75;5028731;28;20197;-62
2022/03/12 06:10:55;;;;;;;22.15;13.40;;;;;;;4.17;41.18;96171.41;5027397;28;20201;-62
2022/03/12 06:13:28;;;;;;;23.10;14.27;;;;;;;4.05;41.85;96172.88;5029843;28;20244;-63
2022/03/12 06:16:02;;;;;;;21.88;13.57;;;;;;;4.25;43.53;96173.88;5028642;28;20222;-61
2022/03/12 06:18:36;;;;;;;25.00;13.27;;;;;;;4.81;42.66;96172.97;5028948;28;20288;-66
2022/03/12 06:21:04;;;;;;;22.95;12.82;;;;;;;3.94;43.97;96183.72;5029193;28;20228;-66
2022/03/12 06:23:31;;;;;;;26.33;13.98;;;;;;;4.04;42.23;96189.41;5029794;28;20234;-64
2022/03/12 06:26:02;;;;;;;23.05;12.70;;;;;;;4.14;41.27;96164.00;5029687;28;20636;-61
2022/03/12 06:28:34;;;;;;;19.05;11.13;;;;;;;4.11;40.73;96191.09;5029338;28;20718;-62
2022/03/12 06:31:02;;;;;;;19.15;11.38;;;;;;;3.32;41.03;96195.50;5028513;28;20640;-62
2022/03/12 06:33:30;;;;;;;17.73;11.02;;;;;;;2.84;41.73;96199.38;5029213;28;20188;-62
2022/03/12 06:35:57;;;;;;;46.05;25.67;;;;;;;2.35;42.47;96187.81;5028942;28;20240;-63
2022/03/12 06:38:26;;;;;;;79.55;48.22;;;;;;;3.47;42.39;96191.09;5028913;28;20731;-62
2022/03/12 06:40:56;;;;;;;16.85;10.98;;;;;;;2.74;41.64;96199.63;5028789;28;20247;-63
2022/03/12 06:43:28;;;;;;;18.25;10.27;;;;;;;2.10;42.28;96202.69;5028999;28;20227;-63
2022/03/12 06:45:58;;;;;;;16.45;10.00;;;;;;;3.21;40.63;96206.31;5028457;28;20235;-63
2022/03/12 06:48:28;;;;;;;17.25;9.80;;;;;;;3.12;39.44;96207.38;5028904;28;20212;-61
2022/03/12 06:50:55;;;;;;;17.80;9.90;;;;;;;3.70;38.88;96199.59;5029028;28;20198;-62
2022/03/12 06:53:23;;;;;;;15.93;10.18;;;;;;;4.66;38.15;96199.97;5029229;28;20200;-62
2022/03/12 06:55:49;;;;;;;16.60;9.23;;;;;;;5.01;36.78;96199.06;5027938;28;20279;-64
2022/03/12 06:58:18;;;;;;;14.85;9.45;;;;;;;5.07;35.84;96201.72;5027850;28;20205;-62
2022/03/12 07:00:45;;;;;;;26.92;17.50;;;;;;;5.32;36.74;96212.47;5028542;28;20201;-64
2022/03/12 07:03:12;;;;;;;22.63;14.38;;;;;;;5.42;36.32;96212.16;5029042;28;20229;-61
2022/03/12 07:05:42;;;;;;;22.33;13.90;;;;;;;5.56;37.40;96213.81;5028673;28;20224;-63
2022/03/12 07:08:09;;;;;;;17.98;10.52;;;;;;;5.77;36.10;96211.09;5028646;28;20205;-65
2022/03/12 07:10:36;;;;;;;18.17;11.80;;;;;;;5.34;35.16;96204.50;5028502;28;20586;-61
2022/03/12 07:13:04;;;;;;;24.90;11.88;;;;;;;5.68;34.86;96222.66;5028712;28;20227;-60
2022/03/12 07:15:31;;;;;;;17.13;10.75;;;;;;;5.76;34.50;96219.91;5028317;28;20706;-61
2022/03/12 07:17:58;;;;;;;15.00;9.82;;;;;;;5.89;34.24;96222.63;5028730;28;20681;-63
2022/03/12 07:20:25;;;;;;;17.58;9.82;;;;;;;5.57;34.56;96228.41;5028506;28;20303;-60
2022/03/12 07:22:52;;;;;;;21.17;11.43;;;;;;;5.75;34.52;96239.09;5028496;28;20224;-63
2022/03/12 07:25:19;;;;;;;56.47;34.88;;;;;;;5.93;34.69;96234.25;5027435;28;20335;-61
2022/03/12 07:27:46;;;;;;;23.98;14.05;;;;;;;6.15;34.05;96241.72;5028339;28;20197;-65
2022/03/12 07:30:14;;;;;;;14.13;9.00;;;;;;;6.35;33.75;96241.78;5028538;28;20277;-63
2022/03/12 07:32:43;;;;;;;13.02;8.65;;;;;;;6.33;33.33;96249.00;5028760;28;20201;-64
2022/03/12 07:35:12;;;;;;;13.98;9.05;;;;;;;6.63;32.90;96250.25;5028148;28;20193;-64
2022/03/12 07:37:40;;;;;;;13.68;8.52;;;;;;;6.45;32.87;96251.81;5028215;28;20742;-62
2022/03/12 07:40:09;;;;;;;14.10;9.05;;;;;;;6.65;32.80;96258.69;5027848;28;20186;-62
2022/03/12 07:42:36;;;;;;;11.65;7.60;;;;;;;6.57;32.34;96253.66;5031190;28;20265;-62
2022/03/12 07:45:07;;;;;;;11.35;7.22;;;;;;;6.39;31.94;96253.41;5031893;28;20173;-61
2022/03/12 07:47:34;;;;;;;10.40;7.40;;;;;;;6.33;32.37;96248.19;5032506;28;20297;-63
2022/03/12 07:50:05;;;;;;;9.55;6.53;;;;;;;6.79;32.15;96249.88;5032796;28;20301;-64
2022/03/12 07:52:32;;;;;;;11.00;7.30;;;;;;;6.87;32.16;96252.31;5032353;28;20201;-62
2022/03/12 07:54:59;;;;;;;11.73;7.57;;;;;;;6.90;31.78;96245.88;5031254;28;20201;-62
2022/03/12 07:57:28;;;;;;;12.35;7.22;;;;;;;7.04;32.16;96250.91;5031984;28;20194;-61
2022/03/12 07:59:58;;;;;;;10.43;6.90;;;;;;;7.24;30.51;96237.88;5031703;28;20243;-61
2022/03/12 08:02:26;;;;;;;10.27;7.10;;;;;;;7.07;31.28;96247.09;5032580;28;20217;-65
2022/03/12 08:04:53;;;;;;;43.15;23.15;;;;;;;7.44;32.23;96251.72;5031397;28;20766;-64
2022/03/12 08:07:20;;;;;;;11.00;8.07;;;;;;;8.15;31.26;96244.69;5031765;28;20738;-64
2022/03/12 08:09:47;;;;;;;11.80;7.28;;;;;;;8.46;29.92;96244.78;5030099;28;20209;-63
2022/03/12 08:12:15;;;;;;;10.20;7.15;;;;;;;8.15;29.76;96247.31;5032301;28;20613;-63
2022/03/12 08:14:43;;;;;;;11.18;7.22;;;;;;;7.87;30.00;96246.78;5031256;28;20212;-64
2022/03/12 08:17:10;;;;;;;10.35;6.90;;;;;;;7.88;29.07;96251.00;5031732;28;20212;-61
2022/03/12 08:19:38;;;;;;;8.48;6.10;;;;;;;6.44;28.94;96261.44;5031932;28;20654;-63
2022/03/12 08:22:05;;;;;;;9.60;6.80;;;;;;;6.76;30.01;96255.50;5031697;28;20208;-62
2022/03/12 08:24:32;;;;;;;12.60;7.32;;;;;;;7.27;29.71;96249.69;5030836;28;20235;-62
2022/03/12 08:26:59;;;;;;;9.43;6.95;;;;;;;7.08;30.34;96259.94;5031893;28;20326;-63
2022/03/12 08:29:28;;;;;;;10.60;7.18;;;;;;;7.11;30.36;96248.31;5031253;28;20236;-61
2022/03/12 08:31:55;;;;;;;9.65;7.13;;;;;;;7.27;30.85;96236.66;5031835;28;20189;-63
2022/03/12 08:34:22;;;;;;;10.98;7.57;;;;;;;6.58;29.12;96268.28;5031199;28;20209;-64
2022/03/12 08:36:49;;;;;;;10.93;7.93;;;;;;;7.00;29.90;96259.34;5031543;28;20259;-63
2022/03/12 08:39:16;;;;;;;15.85;7.68;;;;;;;6.65;30.65;96263.09;5031020;28;20197;-62
2022/03/12 08:41:44;;;;;;;12.60;8.48;;;;;;;6.52;30.49;96269.06;5031310;28;20691;-62
2022/03/12 08:44:12;;;;;;;330.10;184.77;;;;;;;6.82;33.44;96259.13;5031110;28;20303;-65
2022/03/12 08:46:42;;;;;;;30.65;17.23;;;;;;;6.90;31.31;96272.75;5031389;28;20208;-60
2022/03/12 08:49:11;;;;;;;144.55;76.93;;;;;;;7.04;31.50;96263.16;5031210;28;20266;-64
2022/03/12 08:51:38;;;;;;;13.60;9.30;;;;;;;6.97;31.75;96268.34;5031441;28;20220;-63
2022/03/12 08:54:06;;;;;;;12.68;8.45;;;;;;;7.34;30.83;96259.13;5037539;28;20224;-64
2022/03/12 08:56:34;;;;;;;11.43;7.88;;;;;;;7.34;30.27;96261.72;5032927;28;20702;-61
2022/03/12 08:59:02;;;;;;;14.25;8.27;;;;;;;7.12;30.18;96257.72;5042309;28;20519;-63
2022/03/12 09:01:29;;;;;;;13.18;8.80;;;;;;;7.43;29.99;96267.53;5051077;28;20189;-64
2022/03/12 09:03:56;;;;;;;16.35;9.10;;;;;;;7.47;29.92;96263.53;5050446;28;20721;-62
2022/03/12 09:06:28;;;;;;;16.30;9.85;;;;;;;7.51;30.39;96264.72;5041223;28;20200;-65
2022/03/12 09:08:55;;;;;;;13.68;8.93;;;;;;;8.00;30.37;96268.44;5030746;28;20657;-62
2022/03/12 09:11:23;;;;;;;15.43;9.90;;;;;;;7.55;29.22;96266.75;5030890;28;20200;-61
2022/03/12 09:13:50;;;;;;;15.35;10.48;;;;;;;7.94;28.91;96271.06;5030549;28;20657;-63
2022/03/12 09:16:18;;;;;;;15.43;9.88;;;;;;;6.82;27.84;96275.56;5028338;28;20537;-61
2022/03/12 09:18:45;;;;;;;15.60;9.25;;;;;;;4.61;29.69;96273.25;5028348;28;20209;-63
2022/03/12 09:21:12;;;;;;;15.73;9.75;;;;;;;5.75;31.03;96275.50;5028273;28;20194;-63
2022/03/12 09:23:39;;;;;;;16.23;9.48;;;;;;;6.06;30.61;96281.09;5029494;28;20224;-64
2022/03/12 09:26:06;;;;;;;16.60;9.85;;;;;;;6.77;29.23;96272.72;5029819;28;20212;-62
2022/03/12 09:28:33;;;;;;;15.43;9.75;;;;;;;7.25;29.03;96270.75;5030573;28;20653;-62
2022/03/12 09:31:04;;;;;;;11.15;6.85;;;;;;;8.13;28.09;96264.97;5029941;28;20292;-61
2022/03/12 09:33:31;;;;;;;13.60;8.80;;;;;;;8.81;27.65;96264.25;5030566;28;20190;-63
2022/03/12 09:35:58;;;;;;;10.93;7.55;;;;;;;9.13;27.52;96258.00;5029394;28;20201;-62
2022/03/12 09:38:25;;;;;;;9.82;6.25;;;;;;;9.05;25.41;96253.03;5030655;28;20202;-64
2022/03/12 09:40:52;;;;;;;9.73;6.80;;;;;;;9.49;26.20;96259.13;5030230;28;20205;-62
2022/03/12 09:43:19;;;;;;;11.65;6.40;;;;;;;9.66;25.90;96253.13;5030152;28;20185;-62
2022/03/12 09:45:46;;;;;;;9.13;5.80;;;;;;;10.43;26.00;96249.84;5029866;28;20204;-62
2022/03/12 09:48:18;;;;;;;9.18;6.20;;;;;;;9.62;24.65;96245.91;5030487;28;20280;-63
2022/03/12 09:50:45;;;;;;;10.93;7.78;;;;;;;10.56;25.25;96248.88;5029752;28;20690;-61
2022/03/12 09:53:12;;;;;;;10.70;7.35;;;;;;;10.86;25.12;96239.97;5029779;28;20211;-61
2022/03/12 09:55:39;;;;;;;9.93;7.05;;;;;;;10.76;24.48;96224.00;5029505;28;20205;-61
2022/03/12 09:58:06;;;;;;;11.95;6.70;;;;;;;11.04;24.42;96247.78;5030214;28;20204;-61
2022/03/12 10:00:33;;;;;;;10.18;6.40;;;;;;;10.86;23.21;96258.34;5029147;28;20229;-62
2022/03/12 10:03:00;;;;;;;9.23;6.32;;;;;;;11.00;24.10;96246.63;5029533;28;20676;-61
2022/03/12 10:05:27;;;;;;;8.23;5.57;;;;;;;10.71;24.39;96257.94;5028048;28;20233;-62
2022/03/12 10:07:54;;;;;;;7.60;5.55;;;;;;;9.83;23.99;96248.13;5030316;28;20573;-62
2022/03/12 10:10:22;;;;;;;7.10;5.63;;;;;;;10.49;25.32;96232.44;5029629;28;20189;-63
2022/03/12 10:12:50;;;;;;;8.80;6.38;;;;;;;9.56;24.75;96257.25;5029950;28;20950;-64
2022/03/12 10:15:19;;;;;;;7.32;5.68;;;;;;;9.64;24.88;96254.34;5028988;28;20208;-62
2022/03/12 10:17:47;;;;;;;8.75;5.78;;;;;;;9.37;25.57;96253.78;5029657;28;20255;-61
2022/03/12 10:20:15;;;;;;;8.68;6.53;;;;;;;9.56;25.37;96238.94;5028875;28;20189;-62
2022/03/12 10:22:45;;;;;;;8.50;5.90;;;;;;;9.26;25.81;96241.41;5029789;28;20188;-61
2022/03/12 10:25:12;;;;;;;6.78;5.53;;;;;;;8.63;24.91;96245.88;5029402;28;20280;-62
2022/03/12 10:27:41;;;;;;;9.00;6.03;;;;;;;8.96;24.82;96235.19;5029715;28;20398;-62
2022/03/12 10:30:10;;;;;;;10.90;6.60;;;;;;;8.90;26.04;96242.09;5029008;28;20201;-60
2022/03/12 10:32:44;;;;;;;8.63;5.85;;;;;;;8.61;25.14;96241.88;5029204;28;20200;-61
2022/03/12 10:35:18;;;;;;;9.98;6.85;;;;;;;8.58;25.83;96237.88;5028760;28;20204;-61
2022/03/12 10:37:48;;;;;;;10.00;6.72;;;;;;;8.84;25.91;96245.53;5029217;28;20200;-62
2022/03/12 10:40:18;;;;;;;10.77;7.10;;;;;;;8.82;26.01;96234.50;5028989;28;20209;-63
2022/03/12 10:42:52;;;;;;;11.70;6.43;;;;;;;8.20;25.37;96234.41;5029427;28;20661;-62
2022/03/12 10:45:27;;;;;;;7.53;5.82;;;;;;;7.84;26.22;96249.81;5028881;28;20306;-63
2022/03/12 10:47:57;;;;;;;9.65;6.35;;;;;;;7.45;25.49;96244.66;5029211;28;20192;-61
2022/03/12 10:50:27;;;;;;;25.70;12.70;;;;;;;7.34;26.00;96237.44;5028954;28;20636;-61
2022/03/12 10:52:57;;;;;;;11.52;7.40;;;;;;;7.46;26.20;96230.63;5028728;28;20189;-61
2022/03/12 10:55:27;;;;;;;10.88;6.40;;;;;;;7.73;26.01;96232.19;5028250;28;20685;-62
2022/03/12 10:58:08;;;;;;;9.15;6.13;;;;;;;8.03;25.80;96233.28;5028658;28;20205;-60
2022/03/12 11:00:38;;;;;;;10.27;5.22;;;;;;;7.96;26.21;96211.63;5028535;28;20221;-62
2022/03/12 11:03:10;;;;;;;7.75;5.00;;;;;;;7.60;25.48;96219.16;5027942;28;20207;-60
2022/03/12 11:05:39;;;;;;;7.75;5.13;;;;;;;7.46;25.68;96220.19;5028323;28;20256;-63
2022/03/12 11:08:09;;;;;;;7.63;5.60;;;;;;;8.27;26.02;96216.94;5028889;28;20625;-61
2022/03/12 11:10:57;;;;;;;6.53;4.65;;;;;;;8.25;26.45;96226.78;5028467;28;20202;-62
2022/03/12 11:13:40;;;;;;;7.32;4.90;;;;;;;8.00;25.83;96218.03;5029365;28;20220;-62
2022/03/12 11:16:28;;;;;;;6.97;4.80;;;;;;;8.39;25.46;96210.06;5029821;28;20300;-61
2022/03/12 11:18:59;;;;;;;37.45;22.33;;;;;;;8.12;26.24;96211.13;5032324;28;20208;-61
2022/03/12 11:21:33;;;;;;;79.70;40.97;;;;;;;6.82;26.57;96218.25;5032171;28;20703;-62
2022/03/12 11:24:03;;;;;;;9.90;6.13;;;;;;;6.50;26.09;96215.56;5036901;28;20343;-64
2022/03/12 11:26:30;;;;;;;6.78;4.63;;;;;;;7.13;25.84;96200.16;5042842;28;20323;-61
2022/03/12 11:28:58;;;;;;;7.05;4.75;;;;;;;7.95;25.84;96204.81;5032265;28;20204;-62
2022/03/12 11:31:52;;;;;;;7.57;4.88;;;;;;;8.31;25.71;96191.19;5033130;28;20278;-62
2022/03/12 11:34:46;;;;;;;7.43;4.78;;;;;;;8.83;24.80;96191.66;5032353;28;20675;-62
2022/03/12 11:37:18;;;;;;;7.45;4.75;;;;;;;9.28;23.84;96194.09;5032714;28;20632;-60
2022/03/12 11:39:48;;;;;;;9.73;5.85;;;;;;;9.09;24.60;96199.28;5032080;28;20201;-61